Date,TemperatureHighF,TemperatureAvgF,TemperatureLowF,DewpointHighF,DewpointAvgF,DewpointLowF,HumidityHigh,HumidityAvg,HumidityLow,PressureMaxIn,PressureMinIn,WindSpeedMaxMPH,WindSpeedAvgMPH,GustSpeedMaxMPH,PrecipitationSumIn
2013-8-1,89.8,81.2,71.9,72.9,69.0,61.3,92,69,40,30.04,29.89,9,2,12,0.00
2013-8-2,93.2,83.4,76.1,80.0,75.0,69.7,89,77,61,29.91,29.76,13,2,14,0.00
2013-8-3,84.6,79.0,72.8,75.2,73.2,71.0,95,83,68,30.00,29.81,17,2,19,0.54
2013-8-4,87.3,80.5,76.2,79.1,75.5,71.1,94,85,72,30.04,29.89,17,2,17,0.00
2013-8-5,96.0,85.2,75.2,79.2,75.0,72.5,93,73,51,29.93,29.74,12,2,12,0.00
2013-8-6,96.8,87.6,76.9,78.1,73.4,69.9,86,64,47,29.81,29.71,11,2,11,0.00
2013-8-7,93.2,85.7,78.9,78.9,74.3,70.9,82,69,55,29.83,29.75,14,3,15,0.00
2013-8-8,84.5,78.8,71.7,76.5,73.5,69.5,95,84,73,29.89,29.77,22,3,22,0.20
2013-8-9,83.7,76.4,70.2,74.8,72.1,69.2,98,87,70,30.01,29.84,16,3,16,0.42
2013-8-10,84.7,75.6,67.8,72.7,69.3,65.4,96,82,64,30.08,29.98,14,4,14,0.00
2013-8-11,88.1,79.5,72.6,76.7,72.4,69.8,92,80,59,30.04,29.95,11,1,11,0.00
2013-8-12,82.8,77.3,72.6,77.6,73.6,69.7,96,89,75,30.03,29.90,23,2,23,0.13
2013-8-13,82.9,74.3,70.7,75.2,71.6,68.8,98,92,76,30.02,29.91,20,2,22,1.90
2013-8-14,82.1,73.7,66.4,71.1,65.5,61.1,94,77,55,30.09,29.99,12,3,13,0.00
2013-8-15,80.3,72.0,63.3,67.5,63.1,59.4,91,74,58,30.08,29.95,12,1,12,0.00
2013-8-16,80.8,72.1,64.5,68.3,64.8,63.1,98,79,58,30.07,29.94,10,2,12,0.23
2013-8-17,79.4,71.7,63.2,64.8,61.9,59.0,91,73,51,30.12,30.01,13,2,14,0.00
2013-8-18,83.8,73.7,62.2,70.4,64.3,60.3,95,74,51,30.10,29.99,8,1,9,0.00
2013-8-19,85.3,75.3,65.5,71.5,66.7,63.3,95,76,55,30.07,29.95,10,1,10,0.00
2013-8-20,87.8,77.2,66.1,73.4,67.4,64.0,94,73,49,30.04,29.94,11,1,11,0.00
2013-8-21,91.0,80.2,69.1,74.2,68.3,63.7,92,69,43,30.04,29.97,10,1,12,0.00
2013-8-22,90.7,82.2,72.2,75.1,70.3,66.8,87,68,48,30.06,29.93,9,1,9,0.00
2013-8-23,90.8,81.4,73.0,75.6,70.8,68.2,86,71,52,30.01,29.91,14,1,14,0.00
2013-8-24,91.5,82.1,73.3,76.9,71.8,69.1,92,72,51,30.08,29.97,11,2,11,0.00
2013-8-25,92.0,83.0,73.4,76.8,72.3,69.6,92,71,52,30.14,30.05,10,1,10,0.00
2013-8-26,91.0,82.4,73.9,74.9,71.4,67.7,89,70,50,30.15,30.03,12,2,12,0.00
2013-8-27,90.7,80.7,69.3,73.5,69.3,65.3,88,70,50,30.08,29.96,13,1,13,0.00
2013-8-28,92.5,82.0,71.1,74.1,71.5,69.6,95,72,50,30.03,29.94,11,1,15,0.00
2013-8-29,96.3,85.6,75.4,74.8,71.2,67.4,87,64,42,30.01,29.91,10,1,11,0.00
2013-8-30,98.0,85.7,72.8,72.5,70.5,67.9,90,63,40,29.94,29.80,11,1,12,0.00
2013-8-31,99.3,87.7,76.8,73.2,70.2,67.3,75,58,39,29.84,29.72,9,1,9,0.00